Time;durP1;ratioP1;P1;durP2;ratioP2;P2;SDS_P1;SDS_P2;PMS_P1;PMS_P2;Temp;Humidity;BMP_temperature;BMP_pressure;BME280_temperature;BME280_humidity;BME280_pressure;Samples;Min_cycle;Max_cycle;Signal;HPM_P1;HPM_P2
2022/05/16 00:00:12;;;;;;;;;9.00;9.00;;;;;21.60;69.99;100927.00;5039860;28;45185;-71
2022/05/16 00:02:37;;;;;;;;;11.50;10.00;;;;;21.56;70.22;100921.06;5040028;28;48179;-72
2022/05/16 00:05:03;;;;;;;;;10.00;10.00;;;;;21.51;70.21;100909.97;5040214;28;45430;-71
2022/05/16 00:07:29;;;;;;;;;10.00;9.00;;;;;21.45;70.19;100905.97;5040381;28;45229;-71
2022/05/16 00:09:54;;;;;;;;;12.75;10.50;;;;;21.44;70.48;100911.38;5040678;28;45427;-72
2022/05/16 00:12:20;;;;;;;;;9.00;8.25;;;;;21.40;70.39;100917.81;5037958;28;47788;-72
2022/05/16 00:14:48;;;;;;;;;8.50;8.00;;;;;21.41;70.80;100920.34;5040205;28;45197;-73
2022/05/16 00:17:14;;;;;;;;;8.75;8.00;;;;;21.49;70.80;100946.28;5040218;28;45453;-71
2022/05/16 00:19:41;;;;;;;;;10.00;9.00;;;;;21.52;70.58;100962.75;5040480;28;45539;-73
2022/05/16 00:22:07;;;;;;;;;12.50;9.75;;;;;21.60;71.20;100970.16;5038760;28;46319;-74
2022/05/16 00:24:32;;;;;;;;;13.50;11.75;;;;;21.59;71.27;100957.03;5040226;28;45398;-73
2022/05/16 00:27:01;;;;;;;;;9.25;7.50;;;;;21.61;71.52;100933.97;5038841;28;45988;-75
2022/05/16 00:29:27;;;;;;;;;7.00;6.75;;;;;21.60;70.71;100913.75;5040008;28;45474;-75
2022/05/16 00:31:56;;;;;;;;;13.50;7.00;;;;;21.52;69.92;100896.66;5038570;28;48148;-75
2022/05/16 00:34:21;;;;;;;;;9.25;7.00;;;;;21.48;69.74;100887.25;5040030;28;45507;-74
2022/05/16 00:36:47;;;;;;;;;7.00;5.25;;;;;21.40;69.27;100891.38;5040047;28;45322;-73
2022/05/16 00:39:14;;;;;;;;;6.00;6.00;;;;;21.34;68.97;100892.66;5038845;28;45426;-71
2022/05/16 00:41:41;;;;;;;;;5.75;4.25;;;;;21.28;69.27;100903.66;5038692;28;47130;-71
2022/05/16 00:44:06;;;;;;;;;6.75;5.00;;;;;21.21;69.81;100912.91;5039602;28;45593;-70
2022/05/16 00:46:32;;;;;;;;;6.00;5.00;;;;;21.14;70.08;100919.59;5038384;28;45379;-70
2022/05/16 00:48:59;;;;;;;;;8.75;6.25;;;;;21.05;70.35;100907.03;5046583;28;45698;-71
2022/05/16 00:51:32;;;;;;;;;6.00;6.00;;;;;21.02;70.52;100899.28;5039434;28;46461;-71
2022/05/16 00:54:10;;;;;;;;;4.00;4.00;;;;;21.01;70.95;100909.00;5038493;28;45444;-72
2022/05/16 00:56:37;;;;;;;;;6.50;5.50;;;;;21.03;70.66;100908.94;5039855;28;45602;-72
2022/05/16 00:59:03;;;;;;;;;7.50;7.00;;;;;20.98;70.76;100897.81;5039382;28;45339;-71
2022/05/16 01:06:59;;;;;;;;;6.00;5.75;;;;;21.00;71.56;100885.31;5039800;28;45459;-73
2022/05/16 01:09:24;;;;;;;;;6.75;6.00;;;;;21.00;71.40;100880.03;5038146;28;46010;-74
2022/05/16 01:11:51;;;;;;;;;7.25;6.75;;;;;20.95;71.36;100877.72;5037963;28;46488;-75
2022/05/16 01:14:39;;;;;;;;;7.50;6.00;;;;;21.01;71.82;100879.09;5037899;28;46000;-75
2022/05/16 01:17:05;;;;;;;;;7.50;5.75;;;;;20.91;71.80;100870.97;5038645;28;45398;-74
2022/05/16 01:19:30;;;;;;;;;7.50;7.25;;;;;20.96;71.06;100879.41;5038051;28;45423;-73
2022/05/16 01:22:00;;;;;;;;;6.00;6.00;;;;;20.96;71.29;100888.19;5039802;28;45437;-72
2022/05/16 01:24:26;;;;;;;;;5.50;5.50;;;;;20.98;71.18;100892.53;5038148;28;45390;-72
2022/05/16 01:26:52;;;;;;;;;6.75;6.00;;;;;20.94;71.30;100876.03;5039371;28;45542;-72
2022/05/16 01:29:20;;;;;;;;;7.00;6.00;;;;;20.99;71.35;100894.22;5039411;28;45472;-72
2022/05/16 01:31:46;;;;;;;;;5.25;5.25;;;;;20.98;71.33;100887.22;5039121;28;46391;-76
2022/05/16 01:34:12;;;;;;;;;8.75;7.25;;;;;21.01;71.29;100894.94;5037974;28;45440;-76
2022/05/16 01:36:39;;;;;;;;;8.25;6.00;;;;;20.98;70.84;100887.22;5039445;28;45424;-73
2022/05/16 01:39:05;;;;;;;;;9.00;7.75;;;;;20.93;71.17;100888.41;5039354;28;45232;-80
2022/05/16 01:41:30;;;;;;;;;6.25;5.75;;;;;20.90;70.97;100885.97;5051336;28;45520;-71
2022/05/16 01:44:00;;;;;;;;;8.75;6.75;;;;;20.92;71.10;100899.91;5037313;28;45425;-77
2022/05/16 01:46:34;;;;;;;;;7.50;4.75;;;;;20.90;70.97;100911.53;5034795;28;45423;-77
2022/05/16 01:49:00;;;;;;;;;7.25;6.75;;;;;20.85;71.09;100917.16;5035344;28;45422;-79
2022/05/16 01:51:26;;;;;;;;;6.50;6.50;;;;;20.86;70.72;100920.63;5034499;28;45521;-78
2022/05/16 01:53:52;;;;;;;;;8.25;6.00;;;;;20.82;70.81;100909.44;5035417;28;45525;-77
2022/05/16 01:56:18;;;;;;;;;7.25;7.00;;;;;20.81;71.32;100902.44;5034053;28;45452;-77
2022/05/16 01:58:44;;;;;;;;;5.50;5.50;;;;;20.80;71.58;100900.75;5035121;28;45557;-76
2022/05/16 02:01:10;;;;;;;;;6.50;6.00;;;;;20.85;71.36;100903.09;5016831;28;48198;-75
2022/05/16 02:03:41;;;;;;;;;7.25;6.00;;;;;20.82;71.39;100908.56;5035346;28;45783;-75
2022/05/16 02:06:07;;;;;;;;;7.50;7.50;;;;;20.81;71.15;100912.16;5038713;28;45355;-74
2022/05/16 02:08:33;;;;;;;;;6.75;6.75;;;;;20.75;71.20;100909.94;5036690;28;45766;-75
2022/05/16 02:11:01;;;;;;;;;6.00;6.00;;;;;20.72;71.59;100918.06;5035006;28;46458;-76
2022/05/16 02:13:26;;;;;;;;;8.00;6.75;;;;;20.67;71.06;100915.75;5036421;28;45641;-75
2022/05/16 02:15:51;;;;;;;;;8.50;7.75;;;;;20.65;71.74;100920.28;5036824;28;45482;-73
2022/05/16 02:18:17;;;;;;;;;9.75;8.25;;;;;20.65;71.79;100915.00;5035025;28;45726;-74
2022/05/16 02:20:42;;;;;;;;;8.00;6.50;;;;;20.63;71.57;100912.47;5036005;28;45996;-76
2022/05/16 02:25:54;;;;;;;;;8.00;8.00;;;;;20.57;72.00;100910.19;5039028;28;45530;-74
2022/05/16 02:28:21;;;;;;;;;10.00;7.25;;;;;20.58;71.36;100911.91;5041446;28;45292;-75
2022/05/16 02:30:47;;;;;;;;;10.50;10.50;;;;;20.53;71.92;100911.38;5050423;28;45404;-74
2022/05/16 02:33:14;;;;;;;;;12.25;8.25;;;;;20.54;72.12;100899.00;5044827;28;45240;-77
2022/05/16 02:35:40;;;;;;;;;11.75;9.00;;;;;20.54;71.99;100906.94;5042492;28;45280;-85
2022/05/16 02:38:07;;;;;;;;;7.50;7.00;;;;;20.58;72.10;100913.69;5043084;28;45229;-85
2022/05/16 02:40:34;;;;;;;;;7.00;7.00;;;;;20.62;71.66;100928.38;5044011;28;45420;-85
2022/05/16 02:43:00;;;;;;;;;8.00;8.00;;;;;20.64;72.03;100937.06;5042333;28;45363;-74
2022/05/16 02:45:28;;;;;;;;;13.75;11.75;;;;;20.63;72.14;100935.38;5041700;28;45354;-73
2022/05/16 02:47:54;;;;;;;;;9.75;7.50;;;;;20.62;71.82;100929.25;5041408;28;45218;-74
2022/05/16 02:50:23;;;;;;;;;8.25;8.25;;;;;20.64;71.87;100931.78;5041638;28;45271;-75
2022/05/16 02:52:49;;;;;;;;;9.00;7.25;;;;;20.59;71.81;100925.94;5041534;28;45358;-74
2022/05/16 02:55:14;;;;;;;;;12.50;11.50;;;;;20.60;72.06;100928.47;5040771;28;45332;-74
2022/05/16 02:57:39;;;;;;;;;14.00;10.00;;;;;20.58;71.67;100927.75;5041216;28;46932;-73
2022/05/16 03:00:08;;;;;;;;;12.50;10.75;;;;;20.60;72.06;100940.84;5040069;28;48156;-74
2022/05/16 03:02:34;;;;;;;;;14.75;12.50;;;;;20.54;71.88;100930.69;5039877;28;45233;-74
2022/05/16 03:04:59;;;;;;;;;13.75;10.75;;;;;20.55;71.79;100948.22;5040308;28;45325;-74
2022/05/16 03:07:25;;;;;;;;;15.25;13.00;;;;;20.56;72.37;100936.72;5039950;28;45552;-74
2022/05/16 03:09:50;;;;;;;;;16.50;14.50;;;;;20.54;72.50;100942.09;5041501;28;45364;-74
2022/05/16 03:12:16;;;;;;;;;9.25;9.25;;;;;20.54;72.49;100933.34;5041107;28;45270;-73
2022/05/16 03:14:41;;;;;;;;;13.50;11.25;;;;;20.52;72.53;100932.59;5046462;28;45418;-73
2022/05/16 03:17:07;;;;;;;;;12.75;11.50;;;;;20.53;72.48;100935.13;5048703;28;45475;-72
2022/05/16 03:19:34;;;;;;;;;16.50;12.50;;;;;20.55;73.25;100927.09;5048620;28;45409;-72
2022/05/16 03:21:59;;;;;;;;;11.50;11.50;;;;;20.56;72.91;100936.72;5041054;28;45347;-74
2022/05/16 03:24:25;;;;;;;;;12.00;11.75;;;;;20.52;72.93;100951.91;5041637;28;45300;-73
2022/05/16 03:26:50;;;;;;;;;14.25;14.25;;;;;20.50;73.38;100953.81;5040570;28;45349;-74
2022/05/16 03:29:16;;;;;;;;;15.25;13.00;;;;;20.51;73.04;100954.66;5049160;28;46470;-75
2022/05/16 03:31:42;;;;;;;;;14.00;11.50;;;;;20.48;73.37;100963.63;5058493;28;45350;-73
2022/05/16 03:34:09;;;;;;;;;13.75;13.25;;;;;20.43;73.54;100960.44;5041303;28;45440;-74
2022/05/16 03:36:35;;;;;;;;;14.25;13.00;;;;;20.44;73.61;100958.66;5039550;28;45486;-74
2022/05/16 03:41:45;;;;;;;;;18.75;16.25;;;;;20.36;73.37;100938.84;5042608;28;45344;-75
2022/05/16 03:44:10;;;;;;;;;18.00;16.25;;;;;20.36;73.69;100944.13;5045390;28;45450;-74
2022/05/16 03:46:37;;;;;;;;;15.00;14.00;;;;;20.35;73.48;100939.78;5044664;27;45556;-75
2022/05/16 03:49:02;;;;;;;;;16.25;15.25;;;;;20.33;73.52;100946.97;5040699;28;46386;-75
2022/05/16 03:51:30;;;;;;;;;17.50;13.50;;;;;20.33;73.61;100960.16;5040274;28;45412;-71
2022/05/16 03:53:55;;;;;;;;;19.25;17.00;;;;;20.36;73.92;100965.22;5041051;28;45343;-74
2022/05/16 03:56:24;;;;;;;;;19.00;15.25;;;;;20.35;73.37;100974.09;5040647;28;45276;-75
2022/05/16 03:58:49;;;;;;;;;13.25;11.25;;;;;20.34;73.48;100979.47;5040426;28;45328;-73
2022/05/16 04:01:15;;;;;;;;;13.50;13.50;;;;;20.34;73.67;100990.88;5040353;28;45426;-76
2022/05/16 04:03:41;;;;;;;;;17.50;17.00;;;;;20.31;74.26;100999.00;5040607;28;45219;-77
2022/05/16 04:06:07;;;;;;;;;13.75;13.50;;;;;20.21;74.57;100997.03;5040091;28;45541;-77
2022/05/16 04:08:33;;;;;;;;;19.50;16.25;;;;;20.13;74.11;101002.81;5040237;28;46343;-74
2022/05/16 04:10:59;;;;;;;;;18.50;16.25;;;;;20.14;74.39;101015.06;5040151;28;45333;-75
2022/05/16 04:13:26;;;;;;;;;17.50;15.25;;;;;20.13;74.49;101005.44;5040300;28;45450;-74
2022/05/16 04:15:51;;;;;;;;;15.75;9.75;;;;;20.14;74.82;101007.13;5040599;28;45356;-74
2022/05/16 04:18:17;;;;;;;;;19.50;16.75;;;;;20.09;74.76;101009.22;5040540;28;45502;-74
2022/05/16 04:20:43;;;;;;;;;23.00;18.00;;;;;20.08;74.55;101010.16;5039951;28;45458;-75
2022/05/16 04:23:09;;;;;;;;;19.00;17.25;;;;;20.12;74.96;101019.59;5040384;28;45304;-74
2022/05/16 04:25:37;;;;;;;;;22.00;16.00;;;;;20.14;74.89;101017.69;5040171;28;45274;-75
2022/05/16 04:28:07;;;;;;;;;17.00;12.25;;;;;20.21;74.72;101031.34;5040491;28;46463;-74
2022/05/16 04:30:32;;;;;;;;;18.75;16.75;;;;;20.25;74.69;101043.41;5052450;28;45330;-74
2022/05/16 04:32:58;;;;;;;;;17.00;16.50;;;;;20.29;74.77;101045.75;5038316;28;45437;-74
2022/05/16 04:35:23;;;;;;;;;18.75;17.00;;;;;20.29;74.36;101043.13;5039736;28;45248;-74
2022/05/16 04:37:49;;;;;;;;;17.25;16.50;;;;;20.35;74.53;101040.09;5040336;28;45271;-73
2022/05/16 04:40:14;;;;;;;;;19.25;17.25;;;;;20.41;74.39;101045.94;5044796;28;45162;-73
2022/05/16 04:42:40;;;;;;;;;21.50;18.50;;;;;20.45;74.39;101050.13;5046258;28;45300;-72
2022/05/16 04:45:26;;;;;;;;;18.50;17.75;;;;;20.45;74.16;101063.31;5039318;28;45466;-72
2022/05/16 04:47:55;;;;;;;;;18.25;17.25;;;;;20.48;73.79;101071.88;5031912;28;46650;-73
2022/05/16 04:50:29;;;;;;;;;18.75;16.50;;;;;20.46;74.10;101081.69;5039224;28;45723;-73
2022/05/16 04:52:56;;;;;;;;;23.50;19.75;;;;;20.49;74.32;101097.34;5038924;28;45470;-75
2022/05/16 04:55:23;;;;;;;;;23.00;17.75;;;;;20.50;73.85;101101.66;5039766;28;45503;-75
2022/05/16 04:57:49;;;;;;;;;22.00;18.50;;;;;20.48;74.18;101102.72;5039175;28;45334;-75
2022/05/16 05:00:17;;;;;;;;;18.00;15.50;;;;;20.44;73.77;101120.53;5039263;28;45642;-72
2022/05/16 05:02:44;;;;;;;;;22.75;19.25;;;;;20.47;74.25;101125.63;5039392;28;45229;-75
2022/05/16 05:05:10;;;;;;;;;21.00;18.00;;;;;20.47;74.09;101135.34;5039392;28;45651;-75
2022/05/16 05:07:37;;;;;;;;;22.75;19.00;;;;;20.46;74.26;101141.56;5039290;28;45350;-74
2022/05/16 05:15:36;;;;;;;;;25.75;21.00;;;;;20.51;74.07;101153.53;5038922;28;45239;-72
2022/05/16 05:18:03;;;;;;;;;21.25;20.25;;;;;20.47;73.92;101146.75;5038690;28;46538;-70
2022/05/16 05:20:29;;;;;;;;;18.00;16.50;;;;;20.47;74.17;101156.47;5039330;28;45481;-70
2022/05/16 05:22:54;;;;;;;;;28.00;21.50;;;;;20.51;74.31;101158.81;5039212;28;45484;-69
2022/05/16 05:25:20;;;;;;;;;20.50;16.75;;;;;20.51;73.51;101161.47;5050731;28;45508;-69
2022/05/16 05:27:48;;;;;;;;;18.75;14.75;;;;;20.43;73.20;101166.38;5038925;28;46269;-65
2022/05/16 05:30:19;;;;;;;;;21.50;20.50;;;;;20.35;73.40;101148.31;5038516;28;45618;-74
2022/05/16 05:32:44;;;;;;;;;22.25;21.50;;;;;20.37;73.02;101156.13;5038819;28;45354;-68
2022/05/16 05:35:11;;;;;;;;;23.25;22.00;;;;;20.36;73.19;101163.22;5038127;28;45736;-68
2022/05/16 05:37:36;;;;;;;;;30.50;21.50;;;;;20.35;73.01;101163.31;5038497;28;45401;-69
2022/05/16 05:40:04;;;;;;;;;25.25;21.50;;;;;20.39;72.79;101163.97;5035436;28;45440;-74
2022/05/16 05:42:30;;;;;;;;;25.25;22.75;;;;;20.40;72.78;101165.66;5038785;28;45320;-73
2022/05/16 05:44:57;;;;;;;;;27.25;25.25;;;;;20.42;72.45;101171.72;5037505;28;45312;-72
2022/05/16 05:47:23;;;;;;;;;21.25;20.50;;;;;20.39;72.95;101182.44;5036209;28;46170;-72
2022/05/16 05:49:48;;;;;;;;;26.00;21.75;;;;;20.47;72.84;101181.06;5038290;28;45624;-73
2022/05/16 05:52:16;;;;;;;;;24.00;21.25;;;;;20.50;71.64;101185.31;5037626;28;45422;-73
2022/05/16 05:54:44;;;;;;;;;21.25;15.00;;;;;20.55;72.19;101197.28;5038263;28;45233;-72
2022/05/16 05:57:10;;;;;;;;;22.50;19.75;;;;;20.65;71.37;101208.13;5038169;28;46122;-71
2022/05/16 05:59:36;;;;;;;;;23.75;20.50;;;;;20.69;70.82;101209.66;5036231;28;45353;-71
2022/05/16 06:02:03;;;;;;;;;22.00;19.50;;;;;20.71;70.45;101213.03;5039404;28;45302;-74
2022/05/16 06:04:28;;;;;;;;;21.00;21.00;;;;;20.74;69.84;101227.84;5041982;28;45320;-73
2022/05/16 06:06:54;;;;;;;;;19.75;17.00;;;;;20.76;69.98;101225.94;5040729;28;46088;-74
2022/05/16 06:09:19;;;;;;;;;19.75;16.50;;;;;20.83;69.60;101232.56;5040526;28;45324;-74
2022/05/16 06:11:45;;;;;;;;;21.75;20.25;;;;;20.82;68.62;101238.75;5041593;28;45507;-69
2022/05/16 06:14:10;;;;;;;;;35.00;28.50;;;;;20.81;69.07;101234.44;5039509;28;45470;-70
2022/05/16 06:16:36;;;;;;;;;22.25;21.25;;;;;20.81;69.01;101237.91;5041173;28;46364;-70
2022/05/16 06:19:01;;;;;;;;;19.50;15.25;;;;;20.89;68.72;101240.09;5044906;28;45335;-69
2022/05/16 06:21:26;;;;;;;;;19.25;17.00;;;;;20.94;68.46;101243.28;5050613;28;46020;-72
2022/05/16 06:23:52;;;;;;;;;21.25;20.00;;;;;20.94;68.33;101252.06;5039787;28;45443;-69
2022/05/16 06:26:17;;;;;;;;;24.25;21.00;;;;;20.98;68.38;101243.94;5041104;28;46543;-67
2022/05/16 06:28:43;;;;;;;;;26.50;21.50;;;;;21.05;68.35;101255.84;5040728;28;45247;-67
2022/05/16 06:31:09;;;;;;;;;35.50;30.50;;;;;21.09;68.69;101255.56;5040701;28;45367;-67
2022/05/16 06:33:35;;;;;;;;;25.50;22.50;;;;;21.08;69.03;101263.56;5039606;28;45472;-67
2022/05/16 06:36:01;;;;;;;;;27.50;23.75;;;;;21.04;68.54;101262.94;5042998;28;46602;-67
2022/05/16 06:38:29;;;;;;;;;23.00;21.75;;;;;21.10;68.91;101275.75;5041219;28;45225;-67
2022/05/16 06:40:56;;;;;;;;;22.00;19.50;;;;;21.19;68.59;101279.59;5041466;28;45254;-70
2022/05/16 06:43:22;;;;;;;;;13.00;13.00;;;;;21.18;67.42;101276.09;5037695;28;45519;-73
2022/05/16 06:45:49;;;;;;;;;18.50;17.25;;;;;21.15;66.71;101280.75;5039968;28;46416;-73
2022/05/16 06:48:14;;;;;;;;;22.25;16.75;;;;;21.15;66.79;101280.75;5039968;28;45877;-73
2022/05/16 06:50:41;;;;;;;;;20.50;16.75;;;;;21.15;65.79;101286.03;5043375;28;45398;-73
2022/05/16 06:53:12;;;;;;;;;15.50;14.50;;;;;21.18;65.56;101291.97;5040648;28;45481;-74
2022/05/16 06:55:37;;;;;;;;;17.75;16.00;;;;;21.08;65.65;101290.00;5039969;28;45405;-72
2022/05/16 06:58:02;;;;;;;;;18.50;16.00;;;;;21.09;65.53;101307.56;5039110;28;45310;-75
2022/05/16 07:00:28;;;;;;;;;19.25;15.75;;;;;21.07;65.74;101312.94;5037936;28;45312;-74
2022/05/16 07:02:53;;;;;;;;;18.25;16.75;;;;;21.12;65.89;101325.88;5039228;28;45290;-75
2022/05/16 07:05:19;;;;;;;;;20.50;18.25;;;;;21.13;65.43;101324.91;5039341;28;45219;-70
2022/05/16 07:07:44;;;;;;;;;18.50;17.25;;;;;21.15;65.40;101323.03;5039303;28;45256;-69
2022/05/16 07:10:10;;;;;;;;;21.75;20.00;;;;;21.23;65.50;101326.91;5040652;28;45335;-70
2022/05/16 07:12:36;;;;;;;;;18.25;17.25;;;;;21.33;64.48;101340.41;5037704;28;45258;-73
2022/05/16 07:15:02;;;;;;;;;17.75;14.25;;;;;21.39;64.02;101345.31;5036236;28;45416;-72
2022/05/16 07:17:28;;;;;;;;;17.75;16.25;;;;;21.40;62.92;101348.81;5038303;28;45330;-78
2022/05/16 07:19:53;;;;;;;;;16.75;15.75;;;;;21.45;63.60;101354.69;5039383;28;45517;-80
2022/05/16 07:22:23;;;;;;;;;15.75;12.00;;;;;21.59;63.50;101351.97;5049936;28;45449;-74
2022/05/16 07:24:51;;;;;;;;;15.50;13.00;;;;;21.67;62.27;101362.94;5040088;28;47698;-74
2022/05/16 07:30:02;;;;;;;;;14.50;12.50;;;;;21.67;62.08;101368.22;5039315;28;45375;-74
2022/05/16 07:32:41;;;;;;;;;14.00;13.00;;;;;21.67;61.10;101364.75;5040562;28;45342;-75
2022/05/16 07:35:10;;;;;;;;;12.50;12.25;;;;;21.68;61.63;101367.28;5040495;28;46213;-75
2022/05/16 07:37:35;;;;;;;;;15.00;13.50;;;;;21.72;61.25;101376.72;5041000;28;45581;-75
2022/05/16 07:40:00;;;;;;;;;13.75;13.25;;;;;21.76;61.07;101369.44;5039602;28;45586;-74
2022/05/16 07:42:26;;;;;;;;;11.25;10.75;;;;;21.85;61.54;101376.78;5037448;28;45877;-75
2022/05/16 07:44:52;;;;;;;;;20.50;12.25;;;;;22.00;60.98;101383.72;5037048;28;47758;-75
2022/05/16 07:47:17;;;;;;;;;13.00;12.50;;;;;22.12;60.58;101382.09;5039786;28;45449;-75
2022/05/16 07:49:42;;;;;;;;;13.25;11.25;;;;;22.21;59.97;101389.44;5040083;28;45551;-74
2022/05/16 07:52:09;;;;;;;;;14.75;12.00;;;;;22.20;58.09;101390.38;5040457;28;45463;-74
2022/05/16 07:54:37;;;;;;;;;8.75;8.50;;;;;22.19;58.77;101390.50;5040185;28;46180;-75
2022/05/16 07:57:04;;;;;;;;;15.50;10.25;;;;;22.20;58.20;101381.59;5040291;28;45494;-75
2022/05/16 07:59:30;;;;;;;;;16.25;13.00;;;;;22.21;58.18;101388.59;5040446;28;45414;-75
2022/05/16 08:01:55;;;;;;;;;9.25;9.00;;;;;22.22;57.50;101390.28;5041178;28;45292;-75
2022/05/16 08:04:21;;;;;;;;;10.75;9.50;;;;;22.14;57.28;101394.28;5038684;28;47522;-75
2022/05/16 08:06:47;;;;;;;;;16.75;12.50;;;;;22.17;58.08;101396.72;5039879;28;45617;-75
2022/05/16 08:11:57;;;;;;;;;16.00;13.00;;;;;22.16;57.42;101387.09;5040240;28;45149;-75
2022/05/16 08:14:22;;;;;;;;;10.00;7.25;;;;;22.30;57.41;101412.69;5038058;28;47187;-75
2022/05/16 08:16:48;;;;;;;;;14.50;11.00;;;;;22.28;56.71;101404.00;5031696;28;45316;-75
2022/05/16 08:19:13;;;;;;;;;11.00;8.00;;;;;22.33;57.00;101408.97;5053199;28;45459;-75
2022/05/16 08:21:41;;;;;;;;;12.00;11.50;;;;;22.40;56.20;101410.25;5039991;28;45248;-75
2022/05/16 08:24:09;;;;;;;;;20.50;15.25;;;;;22.45;56.71;101413.47;5039238;28;45444;-75
2022/05/16 08:26:35;;;;;;;;;17.50;12.25;;;;;22.58;56.74;101416.97;5039661;28;45569;-75
2022/05/16 08:29:00;;;;;;;;;14.00;11.50;;;;;22.69;54.96;101421.56;5039985;28;45433;-75
2022/05/16 08:31:28;;;;;;;;;12.00;10.75;;;;;22.75;55.87;101418.50;5040118;28;45394;-75
2022/05/16 08:33:55;;;;;;;;;18.50;13.75;;;;;22.93;55.75;101425.22;5039005;28;45501;-75
2022/05/16 08:41:58;;;;;;;;;10.25;10.25;;;;;23.20;53.34;101433.06;5039803;28;45578;-75
2022/05/16 08:44:23;;;;;;;;;12.75;10.50;;;;;23.24;53.86;101431.09;5038094;28;47310;-75
2022/05/16 08:47:13;;;;;;;;;9.50;9.50;;;;;23.33;53.42;101425.97;5039970;28;45375;-75
2022/05/16 08:49:51;;;;;;;;;12.50;10.00;;;;;23.41;53.40;101430.72;5038094;28;45254;-75
2022/05/16 08:52:26;;;;;;;;;16.25;11.75;;;;;23.52;53.36;101437.94;5039824;28;45240;-75
2022/05/16 08:55:00;;;;;;;;;9.50;9.00;;;;;23.61;53.01;101438.16;5038233;28;47376;-75
2022/05/16 08:57:36;;;;;;;;;13.00;9.00;;;;;23.65;53.05;101441.47;5039515;28;45545;-75
2022/05/16 09:00:31;;;;;;;;;9.75;9.25;;;;;23.55;52.09;101443.88;5027672;28;45506;-74
2022/05/16 09:02:58;;;;;;;;;12.00;11.50;;;;;23.56;53.07;101442.06;5039290;28;45181;-75
2022/05/16 09:05:40;;;;;;;;;12.00;10.75;;;;;23.65;52.47;101450.28;5038087;28;47796;-75
2022/05/16 09:08:13;;;;;;;;;12.00;9.50;;;;;23.63;51.62;101452.19;5039569;28;45182;-75
2022/05/16 09:10:50;;;;;;;;;11.75;8.00;;;;;23.57;51.47;101465.03;5039980;28;45329;-75
2022/05/16 09:13:29;;;;;;;;;9.00;7.75;;;;;23.49;50.85;101470.00;5039780;28;45233;-74
2022/05/16 09:16:16;;;;;;;;;9.00;9.00;;;;;23.39;51.60;101472.44;5043423;28;45459;-75
2022/05/16 09:18:55;;;;;;;;;10.50;9.25;;;;;23.32;52.02;101472.03;5044174;28;45312;-72
2022/05/16 09:21:33;;;;;;;;;11.75;11.00;;;;;23.34;51.64;101474.56;5038299;28;45424;-72
2022/05/16 09:24:16;;;;;;;;;9.00;9.00;;;;;23.20;50.97;101472.84;5037699;28;45896;-73
2022/05/16 09:27:06;;;;;;;;;10.75;8.75;;;;;23.03;51.81;101473.19;5038816;28;46692;-73
2022/05/16 09:29:39;;;;;;;;;10.25;9.00;;;;;23.06;52.01;101483.56;5039139;28;45443;-73
2022/05/16 09:32:11;;;;;;;;;10.25;9.00;;;;;23.07;52.00;101479.97;5038631;28;45478;-73
2022/05/16 09:34:37;;;;;;;;;9.25;7.75;;;;;23.04;51.92;101486.34;5039161;28;45402;-73
2022/05/16 09:37:03;;;;;;;;;8.75;7.75;;;;;23.00;52.19;101489.28;5039950;28;45804;-73
2022/05/16 09:39:34;;;;;;;;;10.50;9.25;;;;;23.04;51.95;101496.94;5041214;28;45344;-73
2022/05/16 09:42:20;;;;;;;;;11.00;9.00;;;;;23.12;52.02;101493.75;5041067;28;45302;-73
2022/05/16 09:44:48;;;;;;;;;12.50;8.50;;;;;23.33;52.08;101502.91;5040646;28;45372;-73
2022/05/16 09:47:26;;;;;;;;;10.75;8.75;;;;;23.41;51.47;101505.00;5042467;28;45530;-73
2022/05/16 09:50:27;;;;;;;;;12.25;9.75;;;;;23.30;52.40;101499.63;5042060;28;45355;-74
2022/05/16 09:53:02;;;;;;;;;12.00;11.25;;;;;23.37;51.73;101509.69;5042483;28;45486;-75
2022/05/16 09:55:35;;;;;;;;;12.75;11.25;;;;;23.57;51.96;101512.78;5042391;28;45170;-75
2022/05/16 09:58:12;;;;;;;;;7.00;7.00;;;;;23.61;50.96;101509.81;5041707;28;46158;-75
2022/05/16 10:00:56;;;;;;;;;10.75;10.75;;;;;23.77;50.68;101512.25;5041685;28;45225;-75
2022/05/16 10:03:35;;;;;;;;;14.00;10.50;;;;;23.78;50.28;101519.25;5031000;28;45441;-75
2022/05/16 10:06:09;;;;;;;;;12.50;9.50;;;;;23.71;50.38;101512.69;5041936;28;45331;-75
2022/05/16 10:08:37;;;;;;;;;9.75;7.00;;;;;23.78;51.20;101513.94;5040620;28;47975;-75
2022/05/16 10:11:10;;;;;;;;;19.00;13.25;;;;;23.92;50.55;101508.50;5041274;28;45352;-75
2022/05/16 10:13:36;;;;;;;;;10.25;9.00;;;;;23.97;49.90;101511.66;5041942;28;45393;-75
2022/05/16 10:16:06;;;;;;;;;8.75;7.75;;;;;23.97;49.05;101510.81;5041495;28;45551;-75
2022/05/16 10:18:39;;;;;;;;;12.00;10.50;;;;;23.93;49.20;101520.81;5041685;28;45398;-75
2022/05/16 10:21:09;;;;;;;;;10.00;7.00;;;;;24.05;50.20;101520.91;5029002;28;45439;-75
2022/05/16 10:23:39;;;;;;;;;11.00;9.00;;;;;24.27;49.31;101521.06;5041251;28;45403;-75
2022/05/16 10:26:10;;;;;;;;;14.50;12.25;;;;;24.48;48.89;101527.50;5041747;28;45348;-75
2022/05/16 10:28:43;;;;;;;;;9.00;7.50;;;;;24.61;49.26;101526.56;5040785;28;46275;-74
2022/05/16 10:34:30;;;;;;;;;16.25;11.25;;;;;24.95;47.48;101531.09;5040825;28;45316;-74
2022/05/16 10:36:59;;;;;;;;;16.00;12.75;;;;;25.00;48.26;101526.28;5040907;28;45314;-74
2022/05/16 10:39:28;;;;;;;;;8.75;8.75;;;;;25.12;48.21;101520.06;5041077;28;45623;-69
2022/05/16 10:42:12;;;;;;;;;8.50;7.00;;;;;25.27;47.70;101527.84;5039922;28;45529;-70
2022/05/16 10:45:06;;;;;;;;;10.25;8.75;;;;;25.20;46.92;101519.44;5033622;28;45476;-71
2022/05/16 10:47:39;;;;;;;;;12.25;10.00;;;;;25.17;46.79;101527.69;5038936;28;45538;-72
2022/05/16 10:50:23;;;;;;;;;12.00;10.00;;;;;25.19;47.19;101523.06;5032396;28;45413;-76
2022/05/16 10:53:01;;;;;;;;;8.25;8.25;;;;;25.24;45.99;101517.44;5040956;28;45764;-78
2022/05/16 10:55:43;;;;;;;;;8.00;8.00;;;;;25.26;46.15;101519.00;5041128;28;45410;-69
2022/05/16 10:58:18;;;;;;;;;8.75;8.75;;;;;25.45;45.97;101515.78;5040408;28;45549;-69
2022/05/16 11:01:04;;;;;;;;;9.25;7.00;;;;;25.69;45.33;101516.53;5040833;28;46694;-68
2022/05/16 11:04:18;;;;;;;;;6.25;6.25;;;;;25.86;44.81;101525.88;5040434;28;46851;-69
2022/05/16 11:07:01;;;;;;;;;6.50;5.50;;;;;25.98;44.39;101522.19;5036653;28;45546;-68
2022/05/16 11:09:36;;;;;;;;;6.00;5.50;;;;;25.89;42.77;101530.09;5041549;28;45284;-67
2022/05/16 11:12:16;;;;;;;;;5.25;5.25;;;;;25.76;43.49;101525.72;5040283;28;45827;-68
2022/05/16 11:14:59;;;;;;;;;6.50;5.75;;;;;25.76;43.88;101519.56;5040555;28;45384;-69
2022/05/16 11:17:32;;;;;;;;;8.00;6.50;;;;;25.89;43.25;101524.78;5040494;28;45325;-68
2022/05/16 11:20:34;;;;;;;;;8.25;7.00;;;;;25.93;43.25;101521.72;5038791;28;45663;-70
2022/05/16 11:23:10;;;;;;;;;9.50;7.50;;;;;25.97;42.52;101517.00;5017017;28;46291;-69
2022/05/16 11:25:49;;;;;;;;;7.00;7.00;;;;;26.03;43.20;101519.19;5040060;28;45299;-69
2022/05/16 11:28:20;;;;;;;;;6.00;6.00;;;;;26.17;43.13;101529.56;5039783;28;45292;-68
2022/05/16 11:31:17;;;;;;;;;11.50;7.50;;;;;26.22;42.39;101526.53;5039942;28;45303;-68
2022/05/16 11:33:54;;;;;;;;;7.00;6.00;;;;;26.12;42.05;101522.91;5025545;28;46552;-68
2022/05/16 11:36:37;;;;;;;;;7.00;5.25;;;;;26.07;41.07;101521.47;5037109;28;45466;-68
2022/05/16 11:39:23;;;;;;;;;4.50;4.00;;;;;26.08;40.66;101517.00;5037978;28;45344;-68
2022/05/16 11:42:07;;;;;;;;;7.25;5.75;;;;;26.06;41.33;101521.59;5038145;28;45497;-68
2022/05/16 11:44:40;;;;;;;;;5.75;5.50;;;;;26.12;41.65;101509.59;5037961;28;46591;-68
2022/05/16 11:47:11;;;;;;;;;6.00;6.00;;;;;26.26;40.94;101515.50;5038375;28;45593;-68
2022/05/16 11:49:51;;;;;;;;;10.25;8.00;;;;;26.37;41.10;101515.50;5036049;28;45429;-68
2022/05/16 11:52:55;;;;;;;;;7.50;5.50;;;;;26.46;39.89;101507.75;5035642;28;45343;-68
2022/05/16 12:01:06;;;;;;;;;6.00;5.00;;;;;26.57;39.75;101502.34;5039018;28;45324;-68